Aérodrome :
LOGIN :

S'inscrire | Disclaimer

   EN    FR    IT 

 










Légende :    VFR   VFR Marginal   IFR   IFR Intensif   IFR Très Intensif
Visi : 
Plafond : 
>= 8 km
>= 3000ft
5 à 8 km
1000 à 3000 ft
1500m à 5 km
500 à 1000 ft
800 à 1500m
200 à 500 ft
< 800m
< 200 ft
Symboles :   Orages  Brouillard  Fortes neiges  Fortes précipitations  Vent > 20 kt
SIGMETs :   Divers  Orages  Givrage  Turbulence  Onde Orograph.  Cendres Volcan.






- Altitude de l'aérodrome : 53 ft
- Code IATA : HAM


EDDH - Hamburg

DERNIER METAR :
  • 231820Z AUTO 32007KT CAVOK 17/13 Q1015 NOSIG

METARs EXPIRÉS :
  • 231750Z AUTO 31007KT 9999 FEW035 19/12 Q1015 NOSIG
  • 231720Z AUTO 32006KT 9999 FEW034 19/13 Q1015 NOSIG
  • 231650Z AUTO 33008KT 9999 FEW039 19/12 Q1015 NOSIG
  • 231620Z AUTO 28010KT 260V320 9999 FEW041 21/12 Q1014 NOSIG
  • 231550Z AUTO 28008KT 220V310 9999 FEW037 20/12 Q1014 NOSIG
  • 231520Z AUTO 30008KT 270V330 9999 FEW037 SCT045 19/13 Q1014 NOSIG
  • 231450Z AUTO 27010KT 9999 FEW039 19/11 Q1014 NOSIG
  • 231420Z AUTO 26008KT 220V290 9999 FEW042 21/11 Q1014 NOSIG
  • 231350Z AUTO 27008KT 240V310 9999 BKN043 20/11 Q1014 NOSIG

TAF TAF EDDH
Valide du 23 à 18h jusqu'au 25 à 00h UTC


231700Z 2318/2424 30005KT 9999 FEW040
BECMG 2319/2321 VRB02KT
TEMPO 2401/2406 2500 BR
PROB40
TEMPO 2401/2405 1200 BCFG
BECMG 2409/2412 06007KT
TEMPO 2414/2424 SHRA BKN050TCU



MET'MAP, la Météo Aéronautique d'un coup d'oeil ! - Copyright ORBIFLY Décembre 2007 - Disclaimer

ORBIFLY MET'MAP TEAM :

Programmation & Développement : Alexandra Zaïnal
Sur une idée originale de : Baudouin d'Aumeries
Soutien technique & logistique : Manuel Goepfert
Assistance : Marc-Olivier Méhu




SOURCES & CREDITS :

   NOAA